Skip Navigation Links
NOAA logo - Click to go to the NOAA homepage
NOAA's National Weather Service
Alaska Aviation Weather Unit
  NWS logo - Click to go to the NWS homepage
Left Navbar Graphic     21 AKDT = 05 GMT

   
NOAA is celebrating 200 years of science, service, and stewardship. Visit the NOAA 200th celebration Web site to learn more.
USA.gov is the U.S. Government's official Web portal to all Federal, state and local government Web resources and services.
Facebook
NWS on Facebook

Important Change Regarding the AAWU Web Presence

 

Over the last several months, the AAWU has been working to navigate its webpages to a nationally supported server. Security, as well as other needs, have necessitated the change.  In the process, we have made an effort to enhance the functionality of our website, as well as some of our products. As of June 27, 2017, aawu.arh.noaa.gov will be discontinued. The new AAWU web address is weather.gov/aawu. It is now live and will run in-parallel with the old site until it is discontinued. Please send any feedback or questions regarding the new webpages to nws.ar.aawu.webauthors@noaa.gov.  Thank you for your patience during this time of transition.
AAWU Home :: Display TAF Add Bookmark
TAF PABE 250208Z 2502/2524 22008KT P6SM FEW035 BKN060
     FM251200 18005KT P6SM BKN005
     FM251800 17006KT P6SM BKN020 OVC070
     FM252100 17010KT P6SM FEW025 BKN050=

PABE 242353Z VRB05KT 10SM BKN026 14/08 A3023 RMK AO2 SLP236 T01440078 10144 20078 58014= METAR PABE 250053Z 27006KT 10SM SCT029 16/08 A3021 RMK AO2 SLP230 T01560078= METAR PABE 250153Z 21005KT 10SM FEW035 16/07 A3020 RMK AO2 SLP226 T01560072= METAR PABE 250253Z VRB05KT 10SM BKN035 15/07 A3017 RMK AO2 SLP219 T01500072 58017= METAR PABE 250353Z 21009KT 10SM SCT035 16/08 A3016 RMK AO2 SLP213 T01560083= METAR PABE 250453Z 21006KT 10SM BKN037 15/09 A3014 RMK AO2 SLP208 T01500089=
 Alaska TAF Map

NOAA's National Weather Service
Alaska Aviation Weather Unit
6930 Sand Lake Road
Anchorage, AK 99502-1845
Disclaimer
Credits
Glossary
Privacy Policy
About Us
Career Opportunities
Contact AAWU Internet Services Site last modified: April, 17th 2012